sensor_id;sensor_type;location;lat;lon;timestamp;pressure;altitude;pressure_sealevel;temperature;humidity
13312;BME280;34033;48.672;9.376;2023-02-04T00:00:45;99757.44;;;7.92;92.64
13312;BME280;34033;48.672;9.376;2023-02-04T00:03:12;99762.19;;;7.92;92.67
13312;BME280;34033;48.672;9.376;2023-02-04T00:05:39;99763.81;;;7.93;93.19
13312;BME280;34033;48.672;9.376;2023-02-04T00:08:04;99767.06;;;7.95;92.90
13312;BME280;34033;48.672;9.376;2023-02-04T00:10:29;99769.50;;;7.96;92.94
13312;BME280;34033;48.672;9.376;2023-02-04T00:12:55;99767.53;;;7.97;92.48
13312;BME280;34033;48.672;9.376;2023-02-04T00:15:20;99768.13;;;8.03;92.52
13312;BME280;34033;48.672;9.376;2023-02-04T00:17:45;99764.31;;;8.07;92.74
13312;BME280;34033;48.672;9.376;2023-02-04T00:20:11;99763.50;;;8.07;92.69
13312;BME280;34033;48.672;9.376;2023-02-04T00:22:36;99757.66;;;8.00;93.29
13312;BME280;34033;48.672;9.376;2023-02-04T00:25:02;99758.75;;;8.07;92.87
13312;BME280;34033;48.672;9.376;2023-02-04T00:27:27;99754.56;;;8.01;93.41
13312;BME280;34033;48.672;9.376;2023-02-04T00:29:53;99747.34;;;8.00;94.02
13312;BME280;34033;48.672;9.376;2023-02-04T00:32:18;99758.97;;;8.02;94.01
13312;BME280;34033;48.672;9.376;2023-02-04T00:34:43;99762.69;;;8.06;94.01
13312;BME280;34033;48.672;9.376;2023-02-04T00:37:09;99766.63;;;8.05;93.92
13312;BME280;34033;48.672;9.376;2023-02-04T00:39:34;99765.63;;;8.10;94.51
13312;BME280;34033;48.672;9.376;2023-02-04T00:42:00;99772.47;;;8.12;94.09
13312;BME280;34033;48.672;9.376;2023-02-04T00:44:25;99787.22;;;8.13;93.51
13312;BME280;34033;48.672;9.376;2023-02-04T00:46:50;99789.06;;;8.09;93.61
13312;BME280;34033;48.672;9.376;2023-02-04T00:49:16;99795.78;;;8.08;93.85
13312;BME280;34033;48.672;9.376;2023-02-04T00:51:41;99792.66;;;8.09;94.23
13312;BME280;34033;48.672;9.376;2023-02-04T00:54:10;99786.41;;;8.12;93.84
13312;BME280;34033;48.672;9.376;2023-02-04T00:56:36;99792.28;;;8.11;93.62
13312;BME280;34033;48.672;9.376;2023-02-04T00:59:01;99789.44;;;8.19;93.87
13312;BME280;34033;48.672;9.376;2023-02-04T01:01:27;99801.13;;;8.33;92.37
13312;BME280;34033;48.672;9.376;2023-02-04T01:03:53;99804.81;;;8.25;91.77
13312;BME280;34033;48.672;9.376;2023-02-04T01:06:18;99799.34;;;8.29;91.75
13312;BME280;34033;48.672;9.376;2023-02-04T01:08:44;99800.31;;;8.33;92.14
13312;BME280;34033;48.672;9.376;2023-02-04T01:11:09;99801.13;;;8.33;91.09
13312;BME280;34033;48.672;9.376;2023-02-04T01:13:34;99816.38;;;8.36;91.23
13312;BME280;34033;48.672;9.376;2023-02-04T01:16:00;99812.66;;;8.44;90.78
13312;BME280;34033;48.672;9.376;2023-02-04T01:18:25;99814.56;;;8.52;90.51
13312;BME280;34033;48.672;9.376;2023-02-04T01:20:50;99813.88;;;8.55;90.08
13312;BME280;34033;48.672;9.376;2023-02-04T01:23:16;99812.50;;;8.61;89.40
13312;BME280;34033;48.672;9.376;2023-02-04T01:25:41;99826.78;;;8.60;88.42
13312;BME280;34033;48.672;9.376;2023-02-04T01:28:07;99832.38;;;8.72;87.92
13312;BME280;34033;48.672;9.376;2023-02-04T01:30:32;99823.91;;;8.68;87.23
13312;BME280;34033;48.672;9.376;2023-02-04T01:32:57;99836.53;;;8.66;88.13
13312;BME280;34033;48.672;9.376;2023-02-04T01:35:23;99839.53;;;8.61;88.66
13312;BME280;34033;48.672;9.376;2023-02-04T01:37:49;99844.78;;;8.62;89.53
13312;BME280;34033;48.672;9.376;2023-02-04T01:40:14;99838.00;;;8.51;91.28
13312;BME280;34033;48.672;9.376;2023-02-04T01:42:39;99836.53;;;8.54;92.50
13312;BME280;34033;48.672;9.376;2023-02-04T01:45:06;99843.47;;;8.48;92.99
13312;BME280;34033;48.672;9.376;2023-02-04T01:47:32;99853.91;;;8.51;93.58
13312;BME280;34033;48.672;9.376;2023-02-04T01:49:57;99844.88;;;8.54;92.40
13312;BME280;34033;48.672;9.376;2023-02-04T01:52:23;99845.88;;;8.49;92.10
13312;BME280;34033;48.672;9.376;2023-02-04T01:54:49;99836.97;;;8.56;91.56
13312;BME280;34033;48.672;9.376;2023-02-04T01:57:15;99841.63;;;8.52;91.71
13312;BME280;34033;48.672;9.376;2023-02-04T01:59:45;99835.00;;;8.56;89.84
13312;BME280;34033;48.672;9.376;2023-02-04T02:02:43;99829.09;;;8.58;88.14
13312;BME280;34033;48.672;9.376;2023-02-04T02:05:13;99831.41;;;8.56;87.43
13312;BME280;34033;48.672;9.376;2023-02-04T02:07:39;99848.81;;;8.53;86.30
13312;BME280;34033;48.672;9.376;2023-02-04T02:10:07;99851.13;;;8.51;85.20
13312;BME280;34033;48.672;9.376;2023-02-04T02:12:35;99855.06;;;8.50;83.52
13312;BME280;34033;48.672;9.376;2023-02-04T02:15:00;99855.88;;;8.50;81.65
13312;BME280;34033;48.672;9.376;2023-02-04T02:17:26;99864.72;;;8.52;81.45
13312;BME280;34033;48.672;9.376;2023-02-04T02:19:51;99859.50;;;8.51;80.61
13312;BME280;34033;48.672;9.376;2023-02-04T02:25:12;99865.00;;;8.38;79.00
13312;BME280;34033;48.672;9.376;2023-02-04T02:27:38;99859.91;;;8.41;79.94
13312;BME280;34033;48.672;9.376;2023-02-04T02:30:05;99854.84;;;8.43;80.54
13312;BME280;34033;48.672;9.376;2023-02-04T02:32:32;99852.25;;;8.38;78.93
13312;BME280;34033;48.672;9.376;2023-02-04T02:34:58;99861.88;;;8.40;79.35
13312;BME280;34033;48.672;9.376;2023-02-04T02:37:23;99874.56;;;8.38;79.35
13312;BME280;34033;48.672;9.376;2023-02-04T02:39:49;99880.13;;;8.38;78.27
13312;BME280;34033;48.672;9.376;2023-02-04T02:42:16;99878.19;;;8.29;79.05
13312;BME280;34033;48.672;9.376;2023-02-04T02:44:44;99883.75;;;8.29;79.30
13312;BME280;34033;48.672;9.376;2023-02-04T02:47:14;99879.63;;;8.35;79.75
13312;BME280;34033;48.672;9.376;2023-02-04T02:49:41;99872.44;;;8.34;80.07
13312;BME280;34033;48.672;9.376;2023-02-04T02:52:09;99875.50;;;8.42;80.17
13312;BME280;34033;48.672;9.376;2023-02-04T02:54:35;99884.31;;;8.44;79.28
13312;BME280;34033;48.672;9.376;2023-02-04T02:57:00;99888.72;;;8.24;80.05
13312;BME280;34033;48.672;9.376;2023-02-04T02:59:26;99891.28;;;8.29;80.02
13312;BME280;34033;48.672;9.376;2023-02-04T03:02:00;99893.97;;;8.25;80.49
13312;BME280;34033;48.672;9.376;2023-02-04T03:04:29;99905.56;;;8.27;80.65
13312;BME280;34033;48.672;9.376;2023-02-04T03:06:55;99912.63;;;8.25;80.11
13312;BME280;34033;48.672;9.376;2023-02-04T03:09:22;99912.97;;;8.23;79.06
13312;BME280;34033;48.672;9.376;2023-02-04T03:11:49;99916.78;;;8.19;79.57
13312;BME280;34033;48.672;9.376;2023-02-04T03:14:14;99920.38;;;8.19;80.12
13312;BME280;34033;48.672;9.376;2023-02-04T03:16:40;99916.44;;;8.20;80.65
13312;BME280;34033;48.672;9.376;2023-02-04T03:19:06;99934.44;;;8.23;81.03
13312;BME280;34033;48.672;9.376;2023-02-04T03:21:32;99941.78;;;8.27;80.80
13312;BME280;34033;48.672;9.376;2023-02-04T03:23:58;99930.63;;;8.27;81.30
13312;BME280;34033;48.672;9.376;2023-02-04T03:26:24;99933.41;;;8.27;81.33
13312;BME280;34033;48.672;9.376;2023-02-04T03:28:51;99932.97;;;8.25;80.95
13312;BME280;34033;48.672;9.376;2023-02-04T03:31:17;99935.75;;;8.25;81.59
13312;BME280;34033;48.672;9.376;2023-02-04T03:33:42;99943.41;;;8.28;81.84
13312;BME280;34033;48.672;9.376;2023-02-04T03:36:08;99947.19;;;8.32;81.31
13312;BME280;34033;48.672;9.376;2023-02-04T03:38:33;99941.44;;;8.38;81.01
13312;BME280;34033;48.672;9.376;2023-02-04T03:40:59;99949.22;;;8.44;81.21
13312;BME280;34033;48.672;9.376;2023-02-04T03:43:25;99945.38;;;8.36;81.19
13312;BME280;34033;48.672;9.376;2023-02-04T03:45:50;99946.78;;;8.43;80.80
13312;BME280;34033;48.672;9.376;2023-02-04T03:48:15;99948.59;;;8.38;81.33
13312;BME280;34033;48.672;9.376;2023-02-04T03:50:41;99952.13;;;8.27;81.66
13312;BME280;34033;48.672;9.376;2023-02-04T03:53:07;99955.91;;;8.22;82.42
13312;BME280;34033;48.672;9.376;2023-02-04T03:55:32;99952.19;;;8.18;82.53
13312;BME280;34033;48.672;9.376;2023-02-04T03:57:58;99957.94;;;8.13;82.48
13312;BME280;34033;48.672;9.376;2023-02-04T04:00:23;99955.16;;;8.13;82.25
13312;BME280;34033;48.672;9.376;2023-02-04T04:02:49;99955.50;;;8.12;82.30
13312;BME280;34033;48.672;9.376;2023-02-04T04:05:14;99956.50;;;8.07;81.95
13312;BME280;34033;48.672;9.376;2023-02-04T04:07:39;99955.56;;;8.03;82.34
13312;BME280;34033;48.672;9.376;2023-02-04T04:10:05;99967.91;;;7.93;83.31
13312;BME280;34033;48.672;9.376;2023-02-04T04:12:30;99962.19;;;7.90;82.88
13312;BME280;34033;48.672;9.376;2023-02-04T04:14:56;99967.75;;;7.90;83.55
13312;BME280;34033;48.672;9.376;2023-02-04T04:17:22;99964.50;;;7.88;83.93
13312;BME280;34033;48.672;9.376;2023-02-04T04:19:47;99977.25;;;7.89;83.65
13312;BME280;34033;48.672;9.376;2023-02-04T04:22:13;99973.81;;;7.92;83.95
13312;BME280;34033;48.672;9.376;2023-02-04T04:24:39;99971.66;;;7.97;84.68
13312;BME280;34033;48.672;9.376;2023-02-04T04:27:04;99971.78;;;8.01;84.78
13312;BME280;34033;48.672;9.376;2023-02-04T04:29:29;99973.81;;;7.92;84.88
13312;BME280;34033;48.672;9.376;2023-02-04T04:31:55;99984.66;;;7.85;85.04
13312;BME280;34033;48.672;9.376;2023-02-04T04:34:20;99979.22;;;7.88;85.04
13312;BME280;34033;48.672;9.376;2023-02-04T04:36:45;99990.22;;;7.85;85.29
13312;BME280;34033;48.672;9.376;2023-02-04T04:39:11;99991.16;;;7.89;85.64
13312;BME280;34033;48.672;9.376;2023-02-04T04:41:36;99994.97;;;7.84;85.49
13312;BME280;34033;48.672;9.376;2023-02-04T04:44:01;99991.53;;;7.79;85.74
13312;BME280;34033;48.672;9.376;2023-02-04T04:46:27;99993.31;;;7.83;85.61
13312;BME280;34033;48.672;9.376;2023-02-04T04:48:52;99996.41;;;7.90;85.51
13312;BME280;34033;48.672;9.376;2023-02-04T04:51:17;99994.75;;;7.98;84.94
13312;BME280;34033;48.672;9.376;2023-02-04T04:53:43;99995.41;;;7.95;84.66
13312;BME280;34033;48.672;9.376;2023-02-04T04:56:08;99993.44;;;7.95;84.77
13312;BME280;34033;48.672;9.376;2023-02-04T04:58:33;99994.06;;;8.01;84.63
13312;BME280;34033;48.672;9.376;2023-02-04T05:00:59;99996.53;;;8.03;83.90
13312;BME280;34033;48.672;9.376;2023-02-04T05:03:24;99997.66;;;8.02;84.55
13312;BME280;34033;48.672;9.376;2023-02-04T05:05:49;99985.50;;;8.06;84.24
13312;BME280;34033;48.672;9.376;2023-02-04T05:08:15;99993.53;;;8.08;84.11
13312;BME280;34033;48.672;9.376;2023-02-04T05:10:42;99987.28;;;8.11;83.47
13312;BME280;34033;48.672;9.376;2023-02-04T05:13:08;100001.69;;;8.13;83.74
13312;BME280;34033;48.672;9.376;2023-02-04T05:15:34;100000.88;;;8.12;83.66
13312;BME280;34033;48.672;9.376;2023-02-04T05:17:59;99989.75;;;8.12;83.41
13312;BME280;34033;48.672;9.376;2023-02-04T05:20:25;99989.75;;;8.12;83.72
13312;BME280;34033;48.672;9.376;2023-02-04T05:22:50;99984.22;;;8.04;84.17
13312;BME280;34033;48.672;9.376;2023-02-04T05:25:15;99993.25;;;8.01;84.27
13312;BME280;34033;48.672;9.376;2023-02-04T05:27:42;99991.59;;;8.00;84.19
13312;BME280;34033;48.672;9.376;2023-02-04T05:30:10;99992.59;;;8.04;84.12
13312;BME280;34033;48.672;9.376;2023-02-04T05:32:36;100006.66;;;8.07;84.18
13312;BME280;34033;48.672;9.376;2023-02-04T05:35:01;100002.03;;;8.11;83.82
13312;BME280;34033;48.672;9.376;2023-02-04T05:37:27;99998.09;;;8.12;82.85
13312;BME280;34033;48.672;9.376;2023-02-04T05:39:52;100002.22;;;8.06;83.23
13312;BME280;34033;48.672;9.376;2023-02-04T05:42:17;100005.19;;;8.01;84.12
13312;BME280;34033;48.672;9.376;2023-02-04T05:44:43;100007.53;;;7.99;84.50
13312;BME280;34033;48.672;9.376;2023-02-04T05:47:08;100024.88;;;8.05;84.04
13312;BME280;34033;48.672;9.376;2023-02-04T05:49:34;100029.41;;;8.09;83.84
13312;BME280;34033;48.672;9.376;2023-02-04T05:51:59;100024.31;;;8.11;84.06
13312;BME280;34033;48.672;9.376;2023-02-04T05:54:24;100019.75;;;8.07;83.42
13312;BME280;34033;48.672;9.376;2023-02-04T05:56:50;100027.78;;;8.08;83.93
13312;BME280;34033;48.672;9.376;2023-02-04T05:59:16;100022.34;;;8.12;83.87
13312;BME280;34033;48.672;9.376;2023-02-04T06:01:42;100017.03;;;7.98;83.70
13312;BME280;34033;48.672;9.376;2023-02-04T06:04:07;100020.97;;;7.97;83.97
13312;BME280;34033;48.672;9.376;2023-02-04T06:06:32;100031.28;;;7.96;84.51
13312;BME280;34033;48.672;9.376;2023-02-04T06:08:58;100032.09;;;7.97;84.71
13312;BME280;34033;48.672;9.376;2023-02-04T06:11:23;100052.75;;;7.96;83.97
13312;BME280;34033;48.672;9.376;2023-02-04T06:13:48;100055.84;;;7.94;83.89
13312;BME280;34033;48.672;9.376;2023-02-04T06:16:14;100057.81;;;7.94;83.69
13312;BME280;34033;48.672;9.376;2023-02-04T06:18:39;100056.53;;;7.91;83.52
13312;BME280;34033;48.672;9.376;2023-02-04T06:21:04;100071.28;;;7.92;84.31
13312;BME280;34033;48.672;9.376;2023-02-04T06:23:30;100075.88;;;7.88;84.01
13312;BME280;34033;48.672;9.376;2023-02-04T06:25:58;100074.25;;;7.87;84.08
13312;BME280;34033;48.672;9.376;2023-02-04T06:28:24;100087.66;;;7.85;83.99
13312;BME280;34033;48.672;9.376;2023-02-04T06:30:49;100085.03;;;7.88;83.40
13312;BME280;34033;48.672;9.376;2023-02-04T06:33:15;100087.34;;;7.86;81.21
13312;BME280;34033;48.672;9.376;2023-02-04T06:35:40;100087.47;;;7.90;81.04
13312;BME280;34033;48.672;9.376;2023-02-04T06:38:05;100091.47;;;7.80;79.94
13312;BME280;34033;48.672;9.376;2023-02-04T06:40:30;100082.97;;;7.77;80.05
13312;BME280;34033;48.672;9.376;2023-02-04T06:42:56;100086.88;;;7.76;80.17
13312;BME280;34033;48.672;9.376;2023-02-04T06:45:21;100094.41;;;7.75;80.72
13312;BME280;34033;48.672;9.376;2023-02-04T06:47:47;100095.72;;;7.78;81.01
13312;BME280;34033;48.672;9.376;2023-02-04T06:50:12;100095.38;;;7.79;80.67
13312;BME280;34033;48.672;9.376;2023-02-04T06:52:43;100100.50;;;7.69;80.48
13312;BME280;34033;48.672;9.376;2023-02-04T06:55:08;100105.41;;;7.63;80.61
13312;BME280;34033;48.672;9.376;2023-02-04T06:57:33;100106.22;;;7.64;80.54
13312;BME280;34033;48.672;9.376;2023-02-04T06:59:59;100108.84;;;7.69;80.40
13312;BME280;34033;48.672;9.376;2023-02-04T07:02:25;100107.19;;;7.68;80.96
13312;BME280;34033;48.672;9.376;2023-02-04T07:04:50;100106.06;;;7.69;80.49
13312;BME280;34033;48.672;9.376;2023-02-04T07:07:15;100109.34;;;7.71;80.43
13312;BME280;34033;48.672;9.376;2023-02-04T07:09:41;100121.44;;;7.75;80.35
13312;BME280;34033;48.672;9.376;2023-02-04T07:12:06;100122.91;;;7.72;80.29
13312;BME280;34033;48.672;9.376;2023-02-04T07:14:32;100123.25;;;7.71;80.73
13312;BME280;34033;48.672;9.376;2023-02-04T07:16:57;100121.63;;;7.70;81.00
13312;BME280;34033;48.672;9.376;2023-02-04T07:19:23;100122.75;;;7.69;80.47
13312;BME280;34033;48.672;9.376;2023-02-04T07:21:48;100128.81;;;7.71;80.75
13312;BME280;34033;48.672;9.376;2023-02-04T07:24:18;100133.41;;;7.67;80.56
13312;BME280;34033;48.672;9.376;2023-02-04T07:26:43;100131.44;;;7.67;80.88
13312;BME280;34033;48.672;9.376;2023-02-04T07:29:09;100144.53;;;7.67;80.92
13312;BME280;34033;48.672;9.376;2023-02-04T07:31:34;100146.53;;;7.66;80.21
13312;BME280;34033;48.672;9.376;2023-02-04T07:33:59;100154.53;;;7.68;80.24
13312;BME280;34033;48.672;9.376;2023-02-04T07:36:25;100162.22;;;7.62;79.98
13312;BME280;34033;48.672;9.376;2023-02-04T07:38:50;100161.59;;;7.65;79.92
13312;BME280;34033;48.672;9.376;2023-02-04T07:41:15;100175.97;;;7.67;80.24
13312;BME280;34033;48.672;9.376;2023-02-04T07:43:41;100161.72;;;7.69;79.84
13312;BME280;34033;48.672;9.376;2023-02-04T07:46:06;100167.97;;;7.66;80.35
13312;BME280;34033;48.672;9.376;2023-02-04T07:48:32;100172.50;;;8.05;82.86
13312;BME280;34033;48.672;9.376;2023-02-04T07:50:57;100172.88;;;8.32;80.75
13312;BME280;34033;48.672;9.376;2023-02-04T07:53:22;100182.09;;;8.71;80.46
13312;BME280;34033;48.672;9.376;2023-02-04T07:55:48;100168.41;;;9.07;85.84
13312;BME280;34033;48.672;9.376;2023-02-04T07:58:13;100178.28;;;9.26;79.41
13312;BME280;34033;48.672;9.376;2023-02-04T08:00:38;100173.25;;;9.40;76.20
13312;BME280;34033;48.672;9.376;2023-02-04T08:03:04;100178.41;;;9.50;74.56
13312;BME280;34033;48.672;9.376;2023-02-04T08:05:29;100182.75;;;9.59;74.04
13312;BME280;34033;48.672;9.376;2023-02-04T08:07:55;100185.91;;;9.58;73.54
13312;BME280;34033;48.672;9.376;2023-02-04T08:10:20;100197.44;;;9.89;79.72
13312;BME280;34033;48.672;9.376;2023-02-04T08:12:45;100199.91;;;9.91;73.28
13312;BME280;34033;48.672;9.376;2023-02-04T08:15:11;100191.16;;;9.92;73.22
13312;BME280;34033;48.672;9.376;2023-02-04T08:17:36;100198.75;;;9.92;72.48
13312;BME280;34033;48.672;9.376;2023-02-04T08:20:02;100203.31;;;9.96;72.07
13312;BME280;34033;48.672;9.376;2023-02-04T08:22:27;100204.13;;;9.97;71.81
13312;BME280;34033;48.672;9.376;2023-02-04T08:24:52;100210.53;;;9.97;71.13
13312;BME280;34033;48.672;9.376;2023-02-04T08:27:18;100212.94;;;9.99;71.77
13312;BME280;34033;48.672;9.376;2023-02-04T08:29:43;100207.13;;;9.92;71.41
13312;BME280;34033;48.672;9.376;2023-02-04T08:32:09;100217.13;;;9.93;71.56
13312;BME280;34033;48.672;9.376;2023-02-04T08:34:35;100221.22;;;9.95;71.04
13312;BME280;34033;48.672;9.376;2023-02-04T08:37:00;100213.78;;;9.99;71.40
13312;BME280;34033;48.672;9.376;2023-02-04T08:39:26;100217.31;;;10.09;70.17
13312;BME280;34033;48.672;9.376;2023-02-04T08:41:51;100220.34;;;10.16;69.47
13312;BME280;34033;48.672;9.376;2023-02-04T08:44:17;100219.00;;;10.22;69.34
13312;BME280;34033;48.672;9.376;2023-02-04T08:46:42;100218.09;;;10.09;69.43
13312;BME280;34033;48.672;9.376;2023-02-04T08:49:08;100223.50;;;9.81;69.08
13312;BME280;34033;48.672;9.376;2023-02-04T08:51:33;100226.88;;;9.66;69.96
13312;BME280;34033;48.672;9.376;2023-02-04T08:53:58;100224.84;;;9.54;70.96
13312;BME280;34033;48.672;9.376;2023-02-04T08:56:24;100225.88;;;9.50;71.32
13312;BME280;34033;48.672;9.376;2023-02-04T08:58:49;100231.00;;;9.48;71.47
13312;BME280;34033;48.672;9.376;2023-02-04T09:01:17;100236.59;;;9.48;71.67
13312;BME280;34033;48.672;9.376;2023-02-04T09:03:42;100242.16;;;9.48;71.62
13312;BME280;34033;48.672;9.376;2023-02-04T09:06:09;100240.16;;;9.48;71.59
13312;BME280;34033;48.672;9.376;2023-02-04T09:08:34;100246.97;;;9.39;70.78
13312;BME280;34033;48.672;9.376;2023-02-04T09:10:59;100240.78;;;9.33;70.69
13312;BME280;34033;48.672;9.376;2023-02-04T09:13:25;100245.28;;;9.26;70.31
13312;BME280;34033;48.672;9.376;2023-02-04T09:15:50;100250.25;;;9.20;70.67
13312;BME280;34033;48.672;9.376;2023-02-04T09:18:17;100248.63;;;9.10;70.47
13312;BME280;34033;48.672;9.376;2023-02-04T09:20:46;100256.03;;;9.06;69.55
13312;BME280;34033;48.672;9.376;2023-02-04T09:23:12;100252.81;;;8.96;69.61
13312;BME280;34033;48.672;9.376;2023-02-04T09:25:39;100253.16;;;8.94;68.77
13312;BME280;34033;48.672;9.376;2023-02-04T09:28:05;100256.31;;;9.84;98.59
13312;BME280;34033;48.672;9.376;2023-02-04T09:30:31;100263.50;;;11.08;100.00
13312;BME280;34033;48.672;9.376;2023-02-04T09:32:57;100260.72;;;11.97;100.00
13312;BME280;34033;48.672;9.376;2023-02-04T09:35:22;100266.16;;;12.77;76.98
13312;BME280;34033;48.672;9.376;2023-02-04T09:37:48;100270.38;;;13.49;69.07
13312;BME280;34033;48.672;9.376;2023-02-04T09:40:14;100270.81;;;13.51;59.32
13312;BME280;34033;48.672;9.376;2023-02-04T09:42:46;100285.44;;;12.94;56.87
13312;BME280;34033;48.672;9.376;2023-02-04T09:45:18;100278.59;;;12.20;56.39
13312;BME280;34033;48.672;9.376;2023-02-04T09:47:45;100285.53;;;11.83;58.13
13312;BME280;34033;48.672;9.376;2023-02-04T09:50:15;100282.97;;;11.53;59.16
13312;BME280;34033;48.672;9.376;2023-02-04T09:52:41;100293.72;;;11.15;58.35
13312;BME280;34033;48.672;9.376;2023-02-04T09:55:18;100296.31;;;11.08;63.17
13312;BME280;34033;48.672;9.376;2023-02-04T09:57:44;100299.66;;;10.89;59.87
13312;BME280;34033;48.672;9.376;2023-02-04T10:00:20;100301.66;;;11.01;63.98
13312;BME280;34033;48.672;9.376;2023-02-04T10:02:46;100290.94;;;11.15;62.99
13312;BME280;34033;48.672;9.376;2023-02-04T10:05:13;100300.25;;;11.31;62.99
13312;BME280;34033;48.672;9.376;2023-02-04T10:07:39;100299.34;;;11.39;59.67
13312;BME280;34033;48.672;9.376;2023-02-04T10:10:05;100294.56;;;11.40;58.30
13312;BME280;34033;48.672;9.376;2023-02-04T10:12:30;100297.47;;;11.31;56.55
13312;BME280;34033;48.672;9.376;2023-02-04T10:14:56;100300.88;;;11.12;55.77
13312;BME280;34033;48.672;9.376;2023-02-04T10:17:22;100299.09;;;11.20;57.21
13312;BME280;34033;48.672;9.376;2023-02-04T10:19:48;100300.28;;;11.07;55.42
13312;BME280;34033;48.672;9.376;2023-02-04T10:22:20;100297.59;;;11.10;56.71
13312;BME280;34033;48.672;9.376;2023-02-04T10:24:46;100297.69;;;11.14;57.20
13312;BME280;34033;48.672;9.376;2023-02-04T10:27:12;100296.75;;;11.10;56.55
13312;BME280;34033;48.672;9.376;2023-02-04T10:29:41;100301.91;;;11.20;56.45
13312;BME280;34033;48.672;9.376;2023-02-04T10:32:25;100293.63;;;11.23;56.01
13312;BME280;34033;48.672;9.376;2023-02-04T10:34:56;100287.09;;;11.32;56.00
13312;BME280;34033;48.672;9.376;2023-02-04T10:37:21;100281.25;;;11.37;55.07
13312;BME280;34033;48.672;9.376;2023-02-04T10:39:47;100285.44;;;11.30;54.78
13312;BME280;34033;48.672;9.376;2023-02-04T10:42:29;100284.53;;;11.26;54.60
13312;BME280;34033;48.672;9.376;2023-02-04T10:44:55;100281.72;;;11.39;53.84
13312;BME280;34033;48.672;9.376;2023-02-04T10:47:27;100284.63;;;11.42;54.14
13312;BME280;34033;48.672;9.376;2023-02-04T10:52:21;100284.84;;;11.37;54.37
13312;BME280;34033;48.672;9.376;2023-02-04T10:54:48;100272.16;;;11.27;54.11
13312;BME280;34033;48.672;9.376;2023-02-04T10:57:21;100270.84;;;11.37;54.04
13312;BME280;34033;48.672;9.376;2023-02-04T10:59:49;100277.16;;;11.46;53.92
13312;BME280;34033;48.672;9.376;2023-02-04T11:04:59;100272.72;;;11.45;52.68
13312;BME280;34033;48.672;9.376;2023-02-04T11:07:25;100279.72;;;11.51;53.52
13312;BME280;34033;48.672;9.376;2023-02-04T11:09:51;100273.97;;;11.60;53.26
13312;BME280;34033;48.672;9.376;2023-02-04T11:15:01;100275.47;;;11.69;53.01
13312;BME280;34033;48.672;9.376;2023-02-04T11:17:33;100265.34;;;11.77;53.21
13312;BME280;34033;48.672;9.376;2023-02-04T11:19:59;100278.06;;;11.75;51.47
13312;BME280;34033;48.672;9.376;2023-02-04T11:22:45;100283.66;;;11.75;50.78
13312;BME280;34033;48.672;9.376;2023-02-04T11:25:39;100271.66;;;12.02;58.43
13312;BME280;34033;48.672;9.376;2023-02-04T11:28:24;100274.63;;;12.21;56.65
13312;BME280;34033;48.672;9.376;2023-02-04T11:30:59;100273.00;;;12.20;53.10
13312;BME280;34033;48.672;9.376;2023-02-04T11:33:37;100270.47;;;12.15;54.29
13312;BME280;34033;48.672;9.376;2023-02-04T11:36:05;100278.00;;;11.99;53.02
13312;BME280;34033;48.672;9.376;2023-02-04T11:38:31;100279.69;;;11.76;50.77
13312;BME280;34033;48.672;9.376;2023-02-04T11:40:57;100274.91;;;11.64;52.88
13312;BME280;34033;48.672;9.376;2023-02-04T11:43:23;100270.50;;;11.51;51.06
13312;BME280;34033;48.672;9.376;2023-02-04T11:46:00;100262.69;;;11.44;51.80
13312;BME280;34033;48.672;9.376;2023-02-04T11:48:26;100267.72;;;11.26;52.65
13312;BME280;34033;48.672;9.376;2023-02-04T11:50:56;100271.56;;;10.98;52.60
13312;BME280;34033;48.672;9.376;2023-02-04T11:53:29;100268.28;;;10.71;53.15
13312;BME280;34033;48.672;9.376;2023-02-04T11:55:55;100266.50;;;10.55;53.87
13312;BME280;34033;48.672;9.376;2023-02-04T11:58:20;100269.44;;;10.58;55.24
13312;BME280;34033;48.672;9.376;2023-02-04T12:00:50;100266.53;;;10.67;56.81
13312;BME280;34033;48.672;9.376;2023-02-04T12:05:51;100268.53;;;10.78;55.61
13312;BME280;34033;48.672;9.376;2023-02-04T12:13:28;100287.75;;;10.92;53.96
13312;BME280;34033;48.672;9.376;2023-02-04T12:18:23;100288.25;;;10.94;54.12
13312;BME280;34033;48.672;9.376;2023-02-04T12:20:52;100285.09;;;10.83;53.27
13312;BME280;34033;48.672;9.376;2023-02-04T12:23:17;100275.31;;;10.90;56.01
13312;BME280;34033;48.672;9.376;2023-02-04T12:25:42;100285.09;;;10.83;52.99
13312;BME280;34033;48.672;9.376;2023-02-04T12:28:08;100288.47;;;10.89;53.48
13312;BME280;34033;48.672;9.376;2023-02-04T12:30:33;100288.59;;;10.80;53.39
13312;BME280;34033;48.672;9.376;2023-02-04T12:32:58;100290.34;;;10.85;54.40
13312;BME280;34033;48.672;9.376;2023-02-04T12:35:23;100296.16;;;10.80;53.75
13312;BME280;34033;48.672;9.376;2023-02-04T12:37:49;100298.44;;;10.66;53.36
13312;BME280;34033;48.672;9.376;2023-02-04T12:40:16;100294.28;;;10.72;54.07
13312;BME280;34033;48.672;9.376;2023-02-04T12:42:42;100283.69;;;10.77;53.75
13312;BME280;34033;48.672;9.376;2023-02-04T12:45:08;100283.94;;;10.84;54.26
13312;BME280;34033;48.672;9.376;2023-02-04T12:47:34;100290.78;;;10.87;53.91
13312;BME280;34033;48.672;9.376;2023-02-04T12:50:00;100283.22;;;10.87;53.32
13312;BME280;34033;48.672;9.376;2023-02-04T12:52:25;100287.19;;;10.86;53.72
13312;BME280;34033;48.672;9.376;2023-02-04T12:54:50;100293.25;;;10.88;54.08
13312;BME280;34033;48.672;9.376;2023-02-04T12:57:16;100288.38;;;10.85;53.58
13312;BME280;34033;48.672;9.376;2023-02-04T12:59:44;100297.56;;;10.86;52.64
13312;BME280;34033;48.672;9.376;2023-02-04T13:02:10;100292.53;;;10.92;53.28
13312;BME280;34033;48.672;9.376;2023-02-04T13:04:35;100285.69;;;11.01;53.42
13312;BME280;34033;48.672;9.376;2023-02-04T13:07:01;100288.47;;;10.89;51.93
13312;BME280;34033;48.672;9.376;2023-02-04T13:09:26;100285.09;;;10.83;51.74
13312;BME280;34033;48.672;9.376;2023-02-04T13:11:52;100291.16;;;10.85;52.30
13312;BME280;34033;48.672;9.376;2023-02-04T13:14:17;100293.81;;;10.82;51.24
13312;BME280;34033;48.672;9.376;2023-02-04T13:16:42;100285.56;;;10.85;50.26
13312;BME280;34033;48.672;9.376;2023-02-04T13:19:08;100285.56;;;10.85;50.38